Terminal Aerodrome Forecast
Issued by NWS

Home | Current Version | Previous Version | Text Only | Print | Product List | Glossary On
Versions: 1 2 3 4 5 6 7 8 9 10 11 12 13 14 15 16 17 18 19 20 21 22 23
000
FTUS43 KDLH 280523
TAFBRD
TAF
KBRD 280523Z 2806/2906 16008KT P6SM -SHRA VCTS SCT035CB BKN070
      WS020/20030KT
     FM281000 15010KT 5SM -SHRA VCTS BKN015 OVC040CB
     FM281400 14009KT 5SM -SHRA VCTS BKN008 OVC025CB
     FM281900 28008KT P6SM VCTS BKN015 OVC025CB
     FM282300 32009KT P6SM BKN025
     FM290100 31006KT P6SM SCT035 BKN070=

USA.gov is the U.S. government's official web portal to all federal, state and local government web resources and services.